sensor_id;sensor_type;location;lat;lon;timestamp;P1;durP1;ratioP1;P2;durP2;ratioP2
19828;SDS011;10075;50.924;4.396;2023-06-19T00:01:42;4.85;;;3.65;;
19828;SDS011;10075;50.924;4.396;2023-06-19T00:04:09;9.05;;;4.68;;
19828;SDS011;10075;50.924;4.396;2023-06-19T00:06:38;8.23;;;4.22;;
19828;SDS011;10075;50.924;4.396;2023-06-19T00:09:06;13.38;;;4.40;;
19828;SDS011;10075;50.924;4.396;2023-06-19T00:11:34;13.38;;;4.63;;
19828;SDS011;10075;50.924;4.396;2023-06-19T00:14:00;4.75;;;3.85;;
19828;SDS011;10075;50.924;4.396;2023-06-19T00:16:27;6.43;;;3.83;;
19828;SDS011;10075;50.924;4.396;2023-06-19T00:18:54;4.82;;;3.50;;
19828;SDS011;10075;50.924;4.396;2023-06-19T00:21:21;6.18;;;3.67;;
19828;SDS011;10075;50.924;4.396;2023-06-19T00:23:51;7.05;;;3.55;;
19828;SDS011;10075;50.924;4.396;2023-06-19T00:26:18;4.15;;;3.35;;
19828;SDS011;10075;50.924;4.396;2023-06-19T00:28:47;5.13;;;3.33;;
19828;SDS011;10075;50.924;4.396;2023-06-19T00:31:14;8.93;;;4.13;;
19828;SDS011;10075;50.924;4.396;2023-06-19T00:33:41;7.43;;;4.07;;
19828;SDS011;10075;50.924;4.396;2023-06-19T00:36:09;9.00;;;3.97;;
19828;SDS011;10075;50.924;4.396;2023-06-19T00:38:36;5.63;;;3.40;;
19828;SDS011;10075;50.924;4.396;2023-06-19T00:41:05;5.28;;;3.33;;
19828;SDS011;10075;50.924;4.396;2023-06-19T00:43:32;4.50;;;3.33;;
19828;SDS011;10075;50.924;4.396;2023-06-19T00:46:00;4.97;;;3.40;;
19828;SDS011;10075;50.924;4.396;2023-06-19T00:48:28;6.60;;;3.60;;
19828;SDS011;10075;50.924;4.396;2023-06-19T00:50:56;4.78;;;3.50;;
19828;SDS011;10075;50.924;4.396;2023-06-19T00:53:24;5.75;;;3.42;;
19828;SDS011;10075;50.924;4.396;2023-06-19T00:55:51;5.07;;;3.60;;
19828;SDS011;10075;50.924;4.396;2023-06-19T00:58:21;10.52;;;3.33;;
19828;SDS011;10075;50.924;4.396;2023-06-19T01:00:48;6.28;;;3.60;;
19828;SDS011;10075;50.924;4.396;2023-06-19T01:03:15;7.53;;;3.30;;
19828;SDS011;10075;50.924;4.396;2023-06-19T01:05:43;5.95;;;3.47;;
19828;SDS011;10075;50.924;4.396;2023-06-19T01:08:14;6.10;;;3.55;;
19828;SDS011;10075;50.924;4.396;2023-06-19T01:11:05;8.15;;;3.72;;
19828;SDS011;10075;50.924;4.396;2023-06-19T01:13:38;4.60;;;3.22;;
19828;SDS011;10075;50.924;4.396;2023-06-19T01:16:08;4.88;;;3.38;;
19828;SDS011;10075;50.924;4.396;2023-06-19T01:18:36;4.43;;;3.35;;
19828;SDS011;10075;50.924;4.396;2023-06-19T01:21:10;5.68;;;3.80;;
19828;SDS011;10075;50.924;4.396;2023-06-19T01:23:39;7.07;;;4.13;;
19828;SDS011;10075;50.924;4.396;2023-06-19T01:26:07;5.88;;;3.50;;
19828;SDS011;10075;50.924;4.396;2023-06-19T01:28:34;7.45;;;3.83;;
19828;SDS011;10075;50.924;4.396;2023-06-19T01:31:03;7.20;;;3.90;;
19828;SDS011;10075;50.924;4.396;2023-06-19T01:33:32;4.38;;;3.45;;
19828;SDS011;10075;50.924;4.396;2023-06-19T01:36:02;6.57;;;4.25;;
19828;SDS011;10075;50.924;4.396;2023-06-19T01:38:30;5.28;;;4.20;;
19828;SDS011;10075;50.924;4.396;2023-06-19T01:40:59;10.05;;;3.78;;
19828;SDS011;10075;50.924;4.396;2023-06-19T01:43:28;4.60;;;4.03;;
19828;SDS011;10075;50.924;4.396;2023-06-19T01:45:57;9.98;;;4.40;;
19828;SDS011;10075;50.924;4.396;2023-06-19T01:48:25;7.93;;;4.63;;
19828;SDS011;10075;50.924;4.396;2023-06-19T01:50:52;7.22;;;3.90;;
19828;SDS011;10075;50.924;4.396;2023-06-19T01:53:20;6.97;;;4.55;;
19828;SDS011;10075;50.924;4.396;2023-06-19T01:55:47;4.57;;;3.60;;
19828;SDS011;10075;50.924;4.396;2023-06-19T01:58:15;5.30;;;4.25;;
19828;SDS011;10075;50.924;4.396;2023-06-19T02:00:42;7.15;;;4.30;;
19828;SDS011;10075;50.924;4.396;2023-06-19T02:03:09;6.63;;;3.88;;
19828;SDS011;10075;50.924;4.396;2023-06-19T02:05:36;12.02;;;4.55;;
19828;SDS011;10075;50.924;4.396;2023-06-19T02:08:04;5.82;;;4.57;;
19828;SDS011;10075;50.924;4.396;2023-06-19T02:10:32;6.45;;;3.47;;
19828;SDS011;10075;50.924;4.396;2023-06-19T02:12:59;7.00;;;4.05;;
19828;SDS011;10075;50.924;4.396;2023-06-19T02:15:27;7.10;;;3.95;;
19828;SDS011;10075;50.924;4.396;2023-06-19T02:17:55;9.25;;;4.57;;
19828;SDS011;10075;50.924;4.396;2023-06-19T02:20:22;10.95;;;4.45;;
19828;SDS011;10075;50.924;4.396;2023-06-19T02:22:50;8.88;;;3.88;;
19828;SDS011;10075;50.924;4.396;2023-06-19T02:25:17;8.98;;;4.25;;
19828;SDS011;10075;50.924;4.396;2023-06-19T02:27:44;8.23;;;4.15;;
19828;SDS011;10075;50.924;4.396;2023-06-19T02:30:12;7.95;;;4.78;;
19828;SDS011;10075;50.924;4.396;2023-06-19T02:32:40;9.20;;;5.10;;
19828;SDS011;10075;50.924;4.396;2023-06-19T02:35:08;9.00;;;4.57;;
19828;SDS011;10075;50.924;4.396;2023-06-19T02:37:37;8.45;;;4.95;;
19828;SDS011;10075;50.924;4.396;2023-06-19T02:40:04;8.38;;;4.38;;
19828;SDS011;10075;50.924;4.396;2023-06-19T02:42:34;7.80;;;4.70;;
19828;SDS011;10075;50.924;4.396;2023-06-19T02:45:01;5.55;;;4.72;;
19828;SDS011;10075;50.924;4.396;2023-06-19T02:47:29;7.32;;;4.53;;
19828;SDS011;10075;50.924;4.396;2023-06-19T02:49:58;8.85;;;4.25;;
19828;SDS011;10075;50.924;4.396;2023-06-19T02:52:26;9.05;;;5.20;;
19828;SDS011;10075;50.924;4.396;2023-06-19T02:54:54;10.77;;;5.75;;
19828;SDS011;10075;50.924;4.396;2023-06-19T02:57:21;5.93;;;4.97;;
19828;SDS011;10075;50.924;4.396;2023-06-19T02:59:48;8.85;;;4.85;;
19828;SDS011;10075;50.924;4.396;2023-06-19T03:02:15;8.60;;;5.25;;
19828;SDS011;10075;50.924;4.396;2023-06-19T03:04:42;10.27;;;5.13;;
19828;SDS011;10075;50.924;4.396;2023-06-19T03:07:11;11.43;;;5.90;;
19828;SDS011;10075;50.924;4.396;2023-06-19T03:09:40;12.40;;;6.10;;
19828;SDS011;10075;50.924;4.396;2023-06-19T03:12:07;7.18;;;6.15;;
19828;SDS011;10075;50.924;4.396;2023-06-19T03:14:35;10.05;;;5.93;;
19828;SDS011;10075;50.924;4.396;2023-06-19T03:17:02;9.02;;;5.85;;
19828;SDS011;10075;50.924;4.396;2023-06-19T03:19:29;8.32;;;5.68;;
19828;SDS011;10075;50.924;4.396;2023-06-19T03:21:56;11.27;;;6.25;;
19828;SDS011;10075;50.924;4.396;2023-06-19T03:24:25;10.13;;;6.60;;
19828;SDS011;10075;50.924;4.396;2023-06-19T03:26:52;11.57;;;6.80;;
19828;SDS011;10075;50.924;4.396;2023-06-19T03:29:19;11.57;;;6.80;;
19828;SDS011;10075;50.924;4.396;2023-06-19T03:31:46;11.63;;;6.45;;
19828;SDS011;10075;50.924;4.396;2023-06-19T03:34:13;9.80;;;6.63;;
19828;SDS011;10075;50.924;4.396;2023-06-19T03:36:40;8.35;;;5.90;;
19828;SDS011;10075;50.924;4.396;2023-06-19T03:39:07;8.60;;;5.13;;
19828;SDS011;10075;50.924;4.396;2023-06-19T03:41:35;7.60;;;5.82;;
19828;SDS011;10075;50.924;4.396;2023-06-19T03:44:02;7.05;;;5.13;;
19828;SDS011;10075;50.924;4.396;2023-06-19T03:46:29;7.28;;;4.82;;
19828;SDS011;10075;50.924;4.396;2023-06-19T03:48:56;9.27;;;5.70;;
19828;SDS011;10075;50.924;4.396;2023-06-19T03:51:23;6.97;;;5.43;;
19828;SDS011;10075;50.924;4.396;2023-06-19T03:53:50;7.68;;;5.13;;
19828;SDS011;10075;50.924;4.396;2023-06-19T03:56:17;9.25;;;6.05;;
19828;SDS011;10075;50.924;4.396;2023-06-19T03:58:45;8.30;;;5.95;;
19828;SDS011;10075;50.924;4.396;2023-06-19T04:01:12;7.63;;;5.85;;
19828;SDS011;10075;50.924;4.396;2023-06-19T04:03:39;8.57;;;5.78;;
19828;SDS011;10075;50.924;4.396;2023-06-19T04:06:06;9.35;;;6.65;;
19828;SDS011;10075;50.924;4.396;2023-06-19T04:08:33;8.38;;;6.18;;
19828;SDS011;10075;50.924;4.396;2023-06-19T04:11:00;9.15;;;5.78;;
19828;SDS011;10075;50.924;4.396;2023-06-19T04:13:27;10.63;;;5.43;;
19828;SDS011;10075;50.924;4.396;2023-06-19T04:15:55;7.53;;;5.25;;
19828;SDS011;10075;50.924;4.396;2023-06-19T04:18:22;8.25;;;5.35;;
19828;SDS011;10075;50.924;4.396;2023-06-19T04:20:49;7.03;;;5.43;;
19828;SDS011;10075;50.924;4.396;2023-06-19T04:23:16;8.35;;;5.55;;
19828;SDS011;10075;50.924;4.396;2023-06-19T04:25:43;6.32;;;4.90;;
19828;SDS011;10075;50.924;4.396;2023-06-19T04:28:10;6.57;;;5.50;;
19828;SDS011;10075;50.924;4.396;2023-06-19T04:30:37;6.50;;;5.78;;
19828;SDS011;10075;50.924;4.396;2023-06-19T04:33:06;7.22;;;5.65;;
19828;SDS011;10075;50.924;4.396;2023-06-19T04:35:33;7.75;;;5.07;;
19828;SDS011;10075;50.924;4.396;2023-06-19T04:38:04;7.63;;;5.57;;
19828;SDS011;10075;50.924;4.396;2023-06-19T04:40:32;7.90;;;5.45;;
19828;SDS011;10075;50.924;4.396;2023-06-19T04:42:59;10.10;;;5.72;;
19828;SDS011;10075;50.924;4.396;2023-06-19T04:45:27;9.23;;;5.78;;
19828;SDS011;10075;50.924;4.396;2023-06-19T04:47:54;8.18;;;5.38;;
19828;SDS011;10075;50.924;4.396;2023-06-19T04:50:23;8.50;;;5.47;;
19828;SDS011;10075;50.924;4.396;2023-06-19T04:52:50;9.27;;;5.93;;
19828;SDS011;10075;50.924;4.396;2023-06-19T04:55:17;8.70;;;6.07;;
19828;SDS011;10075;50.924;4.396;2023-06-19T04:57:43;10.75;;;5.90;;
19828;SDS011;10075;50.924;4.396;2023-06-19T05:00:11;8.38;;;6.35;;
19828;SDS011;10075;50.924;4.396;2023-06-19T05:02:39;8.98;;;6.97;;
19828;SDS011;10075;50.924;4.396;2023-06-19T05:05:08;10.70;;;7.13;;
19828;SDS011;10075;50.924;4.396;2023-06-19T05:07:37;8.95;;;7.47;;
19828;SDS011;10075;50.924;4.396;2023-06-19T05:10:04;12.73;;;8.43;;
19828;SDS011;10075;50.924;4.396;2023-06-19T05:12:33;8.60;;;7.57;;
19828;SDS011;10075;50.924;4.396;2023-06-19T05:15:01;9.77;;;8.07;;
19828;SDS011;10075;50.924;4.396;2023-06-19T05:17:28;10.93;;;8.75;;
19828;SDS011;10075;50.924;4.396;2023-06-19T05:19:55;12.50;;;9.35;;
19828;SDS011;10075;50.924;4.396;2023-06-19T05:22:22;11.68;;;9.55;;
19828;SDS011;10075;50.924;4.396;2023-06-19T05:24:50;12.10;;;9.43;;
19828;SDS011;10075;50.924;4.396;2023-06-19T05:27:17;12.35;;;10.65;;
19828;SDS011;10075;50.924;4.396;2023-06-19T05:29:44;12.27;;;9.90;;
19828;SDS011;10075;50.924;4.396;2023-06-19T05:32:11;14.80;;;10.82;;
19828;SDS011;10075;50.924;4.396;2023-06-19T05:34:39;12.20;;;9.93;;
19828;SDS011;10075;50.924;4.396;2023-06-19T05:37:06;14.80;;;10.05;;
19828;SDS011;10075;50.924;4.396;2023-06-19T05:39:33;13.25;;;10.90;;
19828;SDS011;10075;50.924;4.396;2023-06-19T05:42:01;14.13;;;9.68;;
19828;SDS011;10075;50.924;4.396;2023-06-19T05:44:28;10.48;;;8.70;;
19828;SDS011;10075;50.924;4.396;2023-06-19T05:46:55;12.23;;;9.65;;
19828;SDS011;10075;50.924;4.396;2023-06-19T05:49:22;15.88;;;10.00;;
19828;SDS011;10075;50.924;4.396;2023-06-19T05:51:49;13.32;;;9.65;;
19828;SDS011;10075;50.924;4.396;2023-06-19T05:54:16;16.02;;;9.85;;
19828;SDS011;10075;50.924;4.396;2023-06-19T05:56:43;10.32;;;9.25;;
19828;SDS011;10075;50.924;4.396;2023-06-19T05:59:11;14.07;;;10.07;;
19828;SDS011;10075;50.924;4.396;2023-06-19T06:01:39;16.83;;;11.20;;
19828;SDS011;10075;50.924;4.396;2023-06-19T06:04:06;11.20;;;9.93;;
19828;SDS011;10075;50.924;4.396;2023-06-19T06:06:33;16.00;;;11.63;;
19828;SDS011;10075;50.924;4.396;2023-06-19T06:09:01;13.18;;;10.20;;
19828;SDS011;10075;50.924;4.396;2023-06-19T06:11:28;13.93;;;10.88;;
19828;SDS011;10075;50.924;4.396;2023-06-19T06:13:55;12.35;;;11.07;;
19828;SDS011;10075;50.924;4.396;2023-06-19T06:16:23;13.13;;;10.63;;
19828;SDS011;10075;50.924;4.396;2023-06-19T06:18:50;11.70;;;9.25;;
19828;SDS011;10075;50.924;4.396;2023-06-19T06:21:17;16.70;;;11.18;;
19828;SDS011;10075;50.924;4.396;2023-06-19T06:23:44;16.80;;;11.10;;
19828;SDS011;10075;50.924;4.396;2023-06-19T06:26:12;13.38;;;11.73;;
19828;SDS011;10075;50.924;4.396;2023-06-19T06:28:39;10.70;;;9.32;;
19828;SDS011;10075;50.924;4.396;2023-06-19T06:31:06;12.70;;;11.38;;
19828;SDS011;10075;50.924;4.396;2023-06-19T06:33:35;14.57;;;11.02;;
19828;SDS011;10075;50.924;4.396;2023-06-19T06:36:02;17.98;;;14.05;;
19828;SDS011;10075;50.924;4.396;2023-06-19T06:38:29;14.80;;;11.13;;
19828;SDS011;10075;50.924;4.396;2023-06-19T06:40:56;16.85;;;11.80;;
19828;SDS011;10075;50.924;4.396;2023-06-19T06:43:23;14.73;;;11.50;;
19828;SDS011;10075;50.924;4.396;2023-06-19T06:45:50;13.45;;;11.05;;
19828;SDS011;10075;50.924;4.396;2023-06-19T06:48:17;14.75;;;10.07;;
19828;SDS011;10075;50.924;4.396;2023-06-19T06:50:45;12.93;;;10.90;;
19828;SDS011;10075;50.924;4.396;2023-06-19T06:53:12;14.15;;;11.45;;
19828;SDS011;10075;50.924;4.396;2023-06-19T06:55:39;16.17;;;11.13;;
19828;SDS011;10075;50.924;4.396;2023-06-19T06:58:06;14.38;;;12.70;;
19828;SDS011;10075;50.924;4.396;2023-06-19T07:00:33;16.67;;;13.05;;
19828;SDS011;10075;50.924;4.396;2023-06-19T07:03:00;16.35;;;11.48;;
19828;SDS011;10075;50.924;4.396;2023-06-19T07:05:28;17.83;;;12.88;;
19828;SDS011;10075;50.924;4.396;2023-06-19T07:07:56;12.05;;;10.55;;
19828;SDS011;10075;50.924;4.396;2023-06-19T07:10:23;15.43;;;12.13;;
19828;SDS011;10075;50.924;4.396;2023-06-19T07:12:50;16.55;;;13.48;;
19828;SDS011;10075;50.924;4.396;2023-06-19T07:15:17;12.70;;;11.00;;
19828;SDS011;10075;50.924;4.396;2023-06-19T07:17:44;13.90;;;11.35;;
19828;SDS011;10075;50.924;4.396;2023-06-19T07:20:11;17.90;;;10.98;;
19828;SDS011;10075;50.924;4.396;2023-06-19T07:22:39;13.98;;;11.38;;
19828;SDS011;10075;50.924;4.396;2023-06-19T07:25:09;16.48;;;11.20;;
19828;SDS011;10075;50.924;4.396;2023-06-19T07:27:37;13.13;;;11.68;;
19828;SDS011;10075;50.924;4.396;2023-06-19T07:30:05;17.10;;;13.45;;
19828;SDS011;10075;50.924;4.396;2023-06-19T07:32:33;15.93;;;13.18;;
19828;SDS011;10075;50.924;4.396;2023-06-19T07:35:00;22.23;;;14.65;;
19828;SDS011;10075;50.924;4.396;2023-06-19T07:37:27;17.25;;;14.48;;
19828;SDS011;10075;50.924;4.396;2023-06-19T07:39:53;20.02;;;14.25;;
19828;SDS011;10075;50.924;4.396;2023-06-19T07:42:22;15.65;;;12.15;;
19828;SDS011;10075;50.924;4.396;2023-06-19T07:44:49;20.85;;;13.95;;
19828;SDS011;10075;50.924;4.396;2023-06-19T07:47:16;30.67;;;15.13;;
19828;SDS011;10075;50.924;4.396;2023-06-19T07:49:45;45.88;;;16.40;;
19828;SDS011;10075;50.924;4.396;2023-06-19T07:52:12;58.72;;;17.55;;
19828;SDS011;10075;50.924;4.396;2023-06-19T07:54:50;19.55;;;12.23;;
19828;SDS011;10075;50.924;4.396;2023-06-19T07:57:18;17.38;;;12.98;;
19828;SDS011;10075;50.924;4.396;2023-06-19T07:59:46;20.63;;;12.68;;
19828;SDS011;10075;50.924;4.396;2023-06-19T08:02:14;14.77;;;12.75;;
19828;SDS011;10075;50.924;4.396;2023-06-19T08:04:41;16.00;;;12.60;;
19828;SDS011;10075;50.924;4.396;2023-06-19T08:07:08;17.05;;;13.15;;
19828;SDS011;10075;50.924;4.396;2023-06-19T08:09:35;14.60;;;12.77;;
19828;SDS011;10075;50.924;4.396;2023-06-19T08:12:03;16.30;;;12.00;;
19828;SDS011;10075;50.924;4.396;2023-06-19T08:14:30;18.52;;;12.13;;
19828;SDS011;10075;50.924;4.396;2023-06-19T08:16:58;18.38;;;11.63;;
19828;SDS011;10075;50.924;4.396;2023-06-19T08:19:25;17.98;;;12.20;;
19828;SDS011;10075;50.924;4.396;2023-06-19T08:21:52;13.38;;;11.75;;
19828;SDS011;10075;50.924;4.396;2023-06-19T08:24:19;15.00;;;11.40;;
19828;SDS011;10075;50.924;4.396;2023-06-19T08:26:46;14.82;;;11.18;;
19828;SDS011;10075;50.924;4.396;2023-06-19T08:29:16;16.15;;;12.27;;
19828;SDS011;10075;50.924;4.396;2023-06-19T08:31:43;16.67;;;11.65;;
19828;SDS011;10075;50.924;4.396;2023-06-19T08:34:11;15.32;;;11.30;;
19828;SDS011;10075;50.924;4.396;2023-06-19T08:36:38;13.38;;;11.10;;
19828;SDS011;10075;50.924;4.396;2023-06-19T08:39:05;13.40;;;11.25;;
19828;SDS011;10075;50.924;4.396;2023-06-19T08:41:33;11.90;;;10.07;;
19828;SDS011;10075;50.924;4.396;2023-06-19T08:44:01;15.25;;;10.68;;
19828;SDS011;10075;50.924;4.396;2023-06-19T08:46:29;12.77;;;9.63;;
19828;SDS011;10075;50.924;4.396;2023-06-19T08:48:56;17.90;;;9.70;;
19828;SDS011;10075;50.924;4.396;2023-06-19T08:51:27;13.23;;;9.32;;
19828;SDS011;10075;50.924;4.396;2023-06-19T08:53:56;13.10;;;9.38;;
19828;SDS011;10075;50.924;4.396;2023-06-19T08:56:26;13.88;;;7.93;;
19828;SDS011;10075;50.924;4.396;2023-06-19T08:58:53;12.05;;;8.30;;
19828;SDS011;10075;50.924;4.396;2023-06-19T09:01:20;12.40;;;10.35;;
19828;SDS011;10075;50.924;4.396;2023-06-19T09:03:48;9.75;;;8.40;;
19828;SDS011;10075;50.924;4.396;2023-06-19T09:06:17;11.02;;;8.15;;
19828;SDS011;10075;50.924;4.396;2023-06-19T09:08:46;11.82;;;9.30;;
19828;SDS011;10075;50.924;4.396;2023-06-19T09:11:24;10.93;;;8.43;;
19828;SDS011;10075;50.924;4.396;2023-06-19T09:13:55;10.52;;;8.25;;
19828;SDS011;10075;50.924;4.396;2023-06-19T09:16:23;17.33;;;8.43;;
19828;SDS011;10075;50.924;4.396;2023-06-19T09:19:02;11.75;;;8.95;;
19828;SDS011;10075;50.924;4.396;2023-06-19T09:21:29;12.30;;;8.30;;
19828;SDS011;10075;50.924;4.396;2023-06-19T09:24:03;13.18;;;9.48;;
19828;SDS011;10075;50.924;4.396;2023-06-19T09:26:31;12.32;;;8.48;;
19828;SDS011;10075;50.924;4.396;2023-06-19T09:28:58;15.63;;;10.00;;
19828;SDS011;10075;50.924;4.396;2023-06-19T09:31:35;12.40;;;8.68;;
19828;SDS011;10075;50.924;4.396;2023-06-19T09:34:03;13.07;;;8.98;;
19828;SDS011;10075;50.924;4.396;2023-06-19T09:36:30;12.27;;;8.52;;
19828;SDS011;10075;50.924;4.396;2023-06-19T09:38:59;12.52;;;8.15;;
19828;SDS011;10075;50.924;4.396;2023-06-19T09:41:29;15.20;;;7.45;;
19828;SDS011;10075;50.924;4.396;2023-06-19T09:43:56;14.15;;;7.75;;
19828;SDS011;10075;50.924;4.396;2023-06-19T09:46:26;11.30;;;8.23;;
19828;SDS011;10075;50.924;4.396;2023-06-19T09:48:57;11.30;;;7.90;;
19828;SDS011;10075;50.924;4.396;2023-06-19T09:51:30;12.75;;;7.60;;
19828;SDS011;10075;50.924;4.396;2023-06-19T09:53:59;18.15;;;8.73;;
19828;SDS011;10075;50.924;4.396;2023-06-19T09:56:29;10.77;;;8.43;;
19828;SDS011;10075;50.924;4.396;2023-06-19T09:58:57;18.55;;;7.55;;
19828;SDS011;10075;50.924;4.396;2023-06-19T10:01:25;11.52;;;7.00;;
19828;SDS011;10075;50.924;4.396;2023-06-19T10:04:03;17.98;;;7.78;;
19828;SDS011;10075;50.924;4.396;2023-06-19T10:06:31;10.70;;;7.90;;
19828;SDS011;10075;50.924;4.396;2023-06-19T10:09:05;10.80;;;7.60;;
19828;SDS011;10075;50.924;4.396;2023-06-19T10:11:46;11.65;;;7.30;;
19828;SDS011;10075;50.924;4.396;2023-06-19T10:14:13;14.45;;;7.72;;
19828;SDS011;10075;50.924;4.396;2023-06-19T10:16:43;12.07;;;7.88;;
19828;SDS011;10075;50.924;4.396;2023-06-19T10:19:14;13.38;;;6.70;;
19828;SDS011;10075;50.924;4.396;2023-06-19T10:21:46;9.57;;;6.72;;
19828;SDS011;10075;50.924;4.396;2023-06-19T10:24:14;13.90;;;8.35;;
19828;SDS011;10075;50.924;4.396;2023-06-19T10:26:43;10.18;;;7.30;;
19828;SDS011;10075;50.924;4.396;2023-06-19T10:29:21;9.95;;;6.97;;
19828;SDS011;10075;50.924;4.396;2023-06-19T10:31:49;9.52;;;7.03;;
19828;SDS011;10075;50.924;4.396;2023-06-19T10:34:16;12.63;;;7.45;;
19828;SDS011;10075;50.924;4.396;2023-06-19T10:36:44;13.02;;;8.32;;
19828;SDS011;10075;50.924;4.396;2023-06-19T10:39:11;15.98;;;10.05;;
19828;SDS011;10075;50.924;4.396;2023-06-19T10:41:39;15.27;;;8.10;;
19828;SDS011;10075;50.924;4.396;2023-06-19T10:44:08;12.80;;;7.78;;
19828;SDS011;10075;50.924;4.396;2023-06-19T10:46:37;12.15;;;7.60;;
19828;SDS011;10075;50.924;4.396;2023-06-19T10:49:05;13.93;;;9.10;;
19828;SDS011;10075;50.924;4.396;2023-06-19T10:51:36;14.48;;;7.95;;
19828;SDS011;10075;50.924;4.396;2023-06-19T10:54:04;10.80;;;7.97;;
19828;SDS011;10075;50.924;4.396;2023-06-19T10:56:31;11.35;;;7.18;;
19828;SDS011;10075;50.924;4.396;2023-06-19T10:58:59;16.95;;;8.60;;
19828;SDS011;10075;50.924;4.396;2023-06-19T11:01:37;14.23;;;9.80;;
19828;SDS011;10075;50.924;4.396;2023-06-19T11:04:06;15.52;;;10.20;;
19828;SDS011;10075;50.924;4.396;2023-06-19T11:06:34;14.07;;;8.13;;
19828;SDS011;10075;50.924;4.396;2023-06-19T11:09:02;13.30;;;8.00;;
19828;SDS011;10075;50.924;4.396;2023-06-19T11:11:37;11.85;;;7.40;;
19828;SDS011;10075;50.924;4.396;2023-06-19T11:14:05;15.23;;;8.40;;
19828;SDS011;10075;50.924;4.396;2023-06-19T11:16:33;15.50;;;8.93;;
19828;SDS011;10075;50.924;4.396;2023-06-19T11:19:02;17.27;;;8.38;;
19828;SDS011;10075;50.924;4.396;2023-06-19T11:21:29;14.90;;;8.85;;
19828;SDS011;10075;50.924;4.396;2023-06-19T11:23:58;12.40;;;8.38;;
19828;SDS011;10075;50.924;4.396;2023-06-19T11:26:25;14.63;;;8.63;;
19828;SDS011;10075;50.924;4.396;2023-06-19T11:28:52;12.27;;;8.27;;
19828;SDS011;10075;50.924;4.396;2023-06-19T11:31:24;12.27;;;8.02;;
19828;SDS011;10075;50.924;4.396;2023-06-19T11:33:56;12.10;;;8.07;;
19828;SDS011;10075;50.924;4.396;2023-06-19T11:36:28;13.48;;;8.55;;
19828;SDS011;10075;50.924;4.396;2023-06-19T11:38:55;10.68;;;6.93;;
19828;SDS011;10075;50.924;4.396;2023-06-19T11:41:25;14.10;;;6.85;;
19828;SDS011;10075;50.924;4.396;2023-06-19T11:43:59;11.15;;;7.60;;
19828;SDS011;10075;50.924;4.396;2023-06-19T11:46:30;11.48;;;8.05;;
19828;SDS011;10075;50.924;4.396;2023-06-19T11:49:07;12.70;;;7.93;;
19828;SDS011;10075;50.924;4.396;2023-06-19T11:51:36;11.43;;;6.72;;
19828;SDS011;10075;50.924;4.396;2023-06-19T11:54:04;9.35;;;6.93;;
19828;SDS011;10075;50.924;4.396;2023-06-19T11:56:33;13.60;;;8.20;;
19828;SDS011;10075;50.924;4.396;2023-06-19T11:59:00;10.70;;;7.78;;
19828;SDS011;10075;50.924;4.396;2023-06-19T12:01:28;13.73;;;9.95;;
19828;SDS011;10075;50.924;4.396;2023-06-19T12:03:55;15.52;;;8.98;;
19828;SDS011;10075;50.924;4.396;2023-06-19T12:06:22;12.52;;;9.38;;
19828;SDS011;10075;50.924;4.396;2023-06-19T12:08:51;13.38;;;7.88;;
19828;SDS011;10075;50.924;4.396;2023-06-19T12:11:18;13.18;;;7.63;;
19828;SDS011;10075;50.924;4.396;2023-06-19T12:13:45;13.70;;;8.00;;
19828;SDS011;10075;50.924;4.396;2023-06-19T12:16:13;11.02;;;8.60;;
19828;SDS011;10075;50.924;4.396;2023-06-19T12:18:41;12.15;;;8.02;;
19828;SDS011;10075;50.924;4.396;2023-06-19T12:21:08;13.45;;;8.68;;
19828;SDS011;10075;50.924;4.396;2023-06-19T12:23:35;15.20;;;10.60;;
19828;SDS011;10075;50.924;4.396;2023-06-19T12:26:03;15.50;;;9.75;;
19828;SDS011;10075;50.924;4.396;2023-06-19T12:28:30;13.73;;;8.52;;
19828;SDS011;10075;50.924;4.396;2023-06-19T12:30:57;13.25;;;8.30;;
19828;SDS011;10075;50.924;4.396;2023-06-19T12:33:25;10.05;;;6.70;;
19828;SDS011;10075;50.924;4.396;2023-06-19T12:35:58;9.35;;;6.60;;
19828;SDS011;10075;50.924;4.396;2023-06-19T12:38:25;9.68;;;6.70;;
19828;SDS011;10075;50.924;4.396;2023-06-19T12:40:53;9.50;;;7.32;;
19828;SDS011;10075;50.924;4.396;2023-06-19T12:43:21;8.80;;;6.55;;
19828;SDS011;10075;50.924;4.396;2023-06-19T12:45:48;13.20;;;8.32;;
19828;SDS011;10075;50.924;4.396;2023-06-19T12:48:15;16.38;;;9.32;;
19828;SDS011;10075;50.924;4.396;2023-06-19T12:50:42;13.88;;;8.85;;
19828;SDS011;10075;50.924;4.396;2023-06-19T12:53:09;10.40;;;7.60;;
19828;SDS011;10075;50.924;4.396;2023-06-19T12:55:36;10.88;;;7.05;;
19828;SDS011;10075;50.924;4.396;2023-06-19T12:58:03;11.20;;;6.50;;
19828;SDS011;10075;50.924;4.396;2023-06-19T13:00:32;11.75;;;6.40;;
19828;SDS011;10075;50.924;4.396;2023-06-19T13:02:59;8.80;;;7.10;;
19828;SDS011;10075;50.924;4.396;2023-06-19T13:05:26;10.25;;;7.15;;
19828;SDS011;10075;50.924;4.396;2023-06-19T13:07:52;12.18;;;6.93;;
19828;SDS011;10075;50.924;4.396;2023-06-19T13:10:19;9.18;;;7.70;;
19828;SDS011;10075;50.924;4.396;2023-06-19T13:12:46;10.43;;;7.18;;
19828;SDS011;10075;50.924;4.396;2023-06-19T13:15:13;11.65;;;7.38;;
19828;SDS011;10075;50.924;4.396;2023-06-19T13:17:42;10.23;;;8.07;;
19828;SDS011;10075;50.924;4.396;2023-06-19T13:20:09;14.95;;;8.77;;
19828;SDS011;10075;50.924;4.396;2023-06-19T13:22:36;12.27;;;7.72;;
19828;SDS011;10075;50.924;4.396;2023-06-19T13:25:04;9.70;;;7.72;;
19828;SDS011;10075;50.924;4.396;2023-06-19T13:27:31;11.43;;;7.40;;
19828;SDS011;10075;50.924;4.396;2023-06-19T13:29:59;12.05;;;8.48;;
19828;SDS011;10075;50.924;4.396;2023-06-19T13:32:27;13.00;;;7.65;;
19828;SDS011;10075;50.924;4.396;2023-06-19T13:34:55;10.52;;;7.57;;
19828;SDS011;10075;50.924;4.396;2023-06-19T13:37:23;17.40;;;7.95;;
19828;SDS011;10075;50.924;4.396;2023-06-19T13:39:50;10.32;;;7.43;;
19828;SDS011;10075;50.924;4.396;2023-06-19T13:42:17;11.02;;;7.18;;
19828;SDS011;10075;50.924;4.396;2023-06-19T13:44:44;11.30;;;6.80;;
19828;SDS011;10075;50.924;4.396;2023-06-19T13:47:11;9.57;;;6.72;;
19828;SDS011;10075;50.924;4.396;2023-06-19T13:49:38;11.70;;;7.28;;
19828;SDS011;10075;50.924;4.396;2023-06-19T13:52:07;10.23;;;6.35;;
19828;SDS011;10075;50.924;4.396;2023-06-19T13:54:34;10.27;;;6.57;;
19828;SDS011;10075;50.924;4.396;2023-06-19T13:57:02;10.65;;;7.07;;
19828;SDS011;10075;50.924;4.396;2023-06-19T13:59:29;9.50;;;6.38;;
19828;SDS011;10075;50.924;4.396;2023-06-19T14:01:56;8.15;;;6.45;;
19828;SDS011;10075;50.924;4.396;2023-06-19T14:04:23;9.18;;;6.28;;
19828;SDS011;10075;50.924;4.396;2023-06-19T14:06:50;8.70;;;6.10;;
19828;SDS011;10075;50.924;4.396;2023-06-19T14:09:18;9.27;;;6.22;;
19828;SDS011;10075;50.924;4.396;2023-06-19T14:11:45;9.50;;;7.10;;
19828;SDS011;10075;50.924;4.396;2023-06-19T14:14:12;9.90;;;6.65;;
19828;SDS011;10075;50.924;4.396;2023-06-19T14:16:39;11.27;;;6.47;;
19828;SDS011;10075;50.924;4.396;2023-06-19T14:19:06;8.80;;;6.15;;
19828;SDS011;10075;50.924;4.396;2023-06-19T14:21:34;9.82;;;5.78;;
19828;SDS011;10075;50.924;4.396;2023-06-19T14:24:00;8.45;;;6.00;;
19828;SDS011;10075;50.924;4.396;2023-06-19T14:26:29;8.13;;;5.80;;
19828;SDS011;10075;50.924;4.396;2023-06-19T14:28:58;10.10;;;5.63;;
19828;SDS011;10075;50.924;4.396;2023-06-19T14:31:25;7.60;;;5.53;;
19828;SDS011;10075;50.924;4.396;2023-06-19T14:33:53;8.27;;;5.72;;
19828;SDS011;10075;50.924;4.396;2023-06-19T14:36:20;9.82;;;4.97;;
19828;SDS011;10075;50.924;4.396;2023-06-19T14:38:47;7.68;;;5.32;;
19828;SDS011;10075;50.924;4.396;2023-06-19T14:41:14;6.40;;;5.18;;